Terminal Aerodrome Forecast
Issued by NWS Houston/Galveston, TX

Home | Current Version | Previous Version | Text Only | Print | Product List | Glossary On
Versions: 1 2 3 4 5 6 7 8 9 10 11 12 13 14 15 16 17 18 19 20 21 22 23 24 25 26 27 28 29 30 31 32 33 34 35 36 37 38 39 40 41 42 43 44 45 46 47 48 49 50
000
FTUS44 KHGX 191731
TAFGLS
TAF
KGLS 191731Z 1918/2018 19013KT P6SM FEW030
     FM200000 20010KT P6SM VCTS SCT035CB SCT070
     FM200200 20008KT P6SM FEW100 BKN250
     FM200900 35015KT P6SM SCT250
     FM201700 01014KT P6SM BKN250=

USA.gov is the U.S. government's official web portal to all federal, state and local government web resources and services.